Time;durP1;ratioP1;P1;durP2;ratioP2;P2;SDS_P1;SDS_P2;PMS_P1;PMS_P2;Temp;Humidity;BMP_temperature;BMP_pressure;BME280_temperature;BME280_humidity;BME280_pressure;Samples;Min_cycle;Max_cycle;Signal;HPM_P1;HPM_P2
2022/08/15 00:00:52;;;;;;;16.10;4.20;;;20.60;71.70;;;;;;5075627;28;20254;-89
2022/08/15 00:03:21;;;;;;;7.00;3.72;;;20.50;72.00;;;;;;5074485;28;20167;-89
2022/08/15 00:05:47;;;;;;;7.97;4.20;;;20.30;72.40;;;;;;5074660;28;20248;-89
2022/08/15 00:08:13;;;;;;;9.18;4.47;;;20.30;72.70;;;;;;5074427;28;20175;-89
2022/08/15 00:10:44;;;;;;;9.13;4.22;;;20.20;72.80;;;;;;5075521;28;20211;-89
2022/08/15 00:13:18;;;;;;;8.75;3.97;;;20.20;73.00;;;;;;5075447;28;20144;-89
2022/08/15 00:15:47;;;;;;;15.82;4.80;;;20.10;73.10;;;;;;5075437;28;20214;-89
2022/08/15 00:18:13;;;;;;;9.35;3.83;;;20.10;73.30;;;;;;5074150;28;20175;-88
2022/08/15 00:20:40;;;;;;;11.32;4.32;;;20.00;73.50;;;;;;5075313;28;20180;-88
2022/08/15 00:23:10;;;;;;;8.82;4.15;;;19.90;73.90;;;;;;5075321;28;20195;-88
2022/08/15 00:25:39;;;;;;;11.80;4.03;;;19.90;73.90;;;;;;5074190;28;20285;-88
2022/08/15 00:28:07;;;;;;;13.60;4.25;;;19.90;73.80;;;;;;5073404;28;20178;-88
2022/08/15 00:30:38;;;;;;;11.90;3.92;;;19.90;73.90;;;;;;5073791;28;20540;-88
2022/08/15 00:33:04;;;;;;;7.28;3.58;;;19.90;73.90;;;;;;5073694;28;20175;-88
2022/08/15 00:35:36;;;;;;;7.43;4.03;;;20.00;74.00;;;;;;5073683;28;20201;-88
2022/08/15 00:38:03;;;;;;;13.50;4.22;;;20.00;74.00;;;;;;5074850;28;20561;-88
2022/08/15 00:40:30;;;;;;;6.22;3.88;;;20.00;73.90;;;;;;5075692;28;20164;-87
2022/08/15 00:42:55;;;;;;;7.72;4.07;;;20.00;73.70;;;;;;5073564;28;20699;-87
2022/08/15 00:45:22;;;;;;;10.77;3.75;;;20.00;73.60;;;;;;5073996;28;20282;-88
2022/08/15 00:48:41;;;;;;;12.68;4.03;;;20.00;73.40;;;;;;5073885;28;20175;-88
2022/08/15 00:50:35;;;;;;;9.05;4.13;;;20.00;73.30;;;;;;5075185;28;20199;-87
2022/08/15 00:53:10;;;;;;;9.00;4.20;;;20.00;73.20;;;;;;5074513;28;20179;-89
2022/08/15 00:55:40;;;;;;;9.27;4.05;;;20.00;72.90;;;;;;5075010;28;20271;-85
2022/08/15 00:58:05;;;;;;;9.32;3.63;;;20.00;73.00;;;;;;5074012;28;20546;-87
2022/08/15 01:00:39;;;;;;;8.10;3.72;;;19.90;72.90;;;;;;5073782;28;20206;-87
2022/08/15 01:03:14;;;;;;;7.28;3.70;;;19.90;72.80;;;;;;5073942;28;20197;-87
2022/08/15 01:05:41;;;;;;;9.55;3.95;;;19.90;72.80;;;;;;5073617;28;20664;-87
2022/08/15 01:08:06;;;;;;;10.40;4.68;;;19.90;72.80;;;;;;5076486;28;20210;-87
2022/08/15 01:10:34;;;;;;;5.40;4.00;;;19.90;72.80;;;;;;5075188;28;20191;-87
2022/08/15 01:13:00;;;;;;;7.65;3.85;;;19.80;72.80;;;;;;5075231;28;20164;-87
2022/08/15 01:15:25;;;;;;;8.00;3.85;;;19.80;72.90;;;;;;5075329;28;20293;-87
2022/08/15 01:17:51;;;;;;;7.38;4.05;;;19.70;73.90;;;;;;5075080;28;20174;-87
2022/08/15 01:20:24;;;;;;;4.90;3.45;;;19.60;74.20;;;;;;5075272;28;20175;-87
2022/08/15 01:23:12;;;;;;;9.32;3.78;;;19.60;74.20;;;;;;5075138;28;20242;-87
2022/08/15 01:25:52;;;;;;;13.98;3.85;;;19.50;74.10;;;;;;5074740;28;20656;-87
2022/08/15 01:28:20;;;;;;;6.88;3.63;;;19.50;74.20;;;;;;5074259;28;20525;-87
2022/08/15 01:30:54;;;;;;;8.60;3.50;;;19.40;74.70;;;;;;5076008;28;20171;-87
2022/08/15 01:33:22;;;;;;;7.18;3.55;;;19.30;75.00;;;;;;5076234;28;20230;-86
2022/08/15 01:35:49;;;;;;;12.98;3.60;;;19.30;75.00;;;;;;5077415;28;20556;-88
2022/08/15 01:38:24;;;;;;;6.47;3.70;;;19.20;75.20;;;;;;5077890;28;20174;-88
2022/08/15 01:41:21;;;;;;;10.10;3.60;;;19.10;75.60;;;;;;5077420;28;20151;-87
2022/08/15 01:44:10;;;;;;;12.32;3.35;;;18.90;76.20;;;;;;5076330;28;20182;-87
2022/08/15 01:46:41;;;;;;;12.35;4.20;;;18.80;76.60;;;;;;5076077;28;20621;-88
2022/08/15 01:49:12;;;;;;;7.43;3.80;;;18.70;77.20;;;;;;5077078;28;20163;-88
2022/08/15 01:51:38;;;;;;;6.30;3.28;;;18.50;77.80;;;;;;5079095;28;20168;-88
2022/08/15 01:54:07;;;;;;;10.50;3.97;;;18.30;78.30;;;;;;5077883;28;20182;-89
2022/08/15 01:56:41;;;;;;;10.38;3.40;;;18.20;78.90;;;;;;5075817;28;20285;-87
2022/08/15 01:59:12;;;;;;;9.55;3.78;;;18.20;79.20;;;;;;5075297;28;20190;-87
2022/08/15 02:01:45;;;;;;;5.80;3.45;;;18.10;79.40;;;;;;5077871;28;20207;-88
2022/08/15 02:04:12;;;;;;;11.75;3.53;;;18.00;79.90;;;;;;5076771;28;20175;-87
2022/08/15 02:06:39;;;;;;;9.65;3.78;;;17.90;80.00;;;;;;5077146;28;20275;-89
2022/08/15 02:09:11;;;;;;;12.68;3.63;;;17.90;80.30;;;;;;5076113;28;20175;-88
2022/08/15 02:11:37;;;;;;;6.20;3.70;;;17.70;80.50;;;;;;5074325;28;20177;-87
2022/08/15 02:14:03;;;;;;;6.55;4.40;;;17.70;80.80;;;;;;5075221;28;20236;-87
2022/08/15 02:16:33;;;;;;;5.90;4.05;;;17.50;81.50;;;;;;5073138;28;20238;-88
2022/08/15 02:18:59;;;;;;;5.97;3.67;;;17.40;81.80;;;;;;5074864;28;20152;-88
2022/08/15 02:21:25;;;;;;;9.13;3.72;;;17.40;82.10;;;;;;5074713;28;20286;-87
2022/08/15 02:23:51;;;;;;;9.07;3.97;;;17.40;82.10;;;;;;5074300;28;20191;-87
2022/08/15 02:26:17;;;;;;;4.90;3.40;;;17.40;82.40;;;;;;5076050;28;20190;-87
2022/08/15 02:28:45;;;;;;;12.27;3.88;;;17.50;82.40;;;;;;5076167;28;20171;-87
2022/08/15 02:31:16;;;;;;;8.25;3.95;;;17.60;82.40;;;;;;5075021;28;20179;-87
2022/08/15 02:33:51;;;;;;;6.47;3.70;;;17.70;82.00;;;;;;5076039;28;20212;-88
2022/08/15 02:36:18;;;;;;;14.18;4.47;;;17.80;81.70;;;;;;5074424;28;20195;-87
2022/08/15 02:38:45;;;;;;;11.48;3.83;;;17.80;81.60;;;;;;5075069;28;20179;-87
2022/08/15 02:41:12;;;;;;;6.95;3.42;;;17.80;81.40;;;;;;5074025;28;20701;-87
2022/08/15 02:43:43;;;;;;;7.38;3.80;;;17.80;81.60;;;;;;5074668;28;20699;-87
2022/08/15 02:46:10;;;;;;;10.38;4.10;;;17.90;81.40;;;;;;5074494;28;20203;-87
2022/08/15 02:48:36;;;;;;;9.52;3.88;;;17.80;81.40;;;;;;5075812;28;20185;-87
2022/08/15 02:51:05;;;;;;;6.50;3.00;;;17.70;81.70;;;;;;5078974;28;20540;-88
2022/08/15 02:53:30;;;;;;;7.78;3.90;;;17.70;81.90;;;;;;5079966;28;20202;-87
2022/08/15 02:55:57;;;;;;;12.70;3.58;;;17.70;82.00;;;;;;5078450;28;20203;-88
2022/08/15 02:58:22;;;;;;;9.85;4.07;;;17.70;82.10;;;;;;5078684;28;20229;-88
2022/08/15 03:00:48;;;;;;;9.65;3.88;;;17.60;82.20;;;;;;5078095;28;20194;-87
2022/08/15 03:03:14;;;;;;;13.35;4.68;;;17.50;82.40;;;;;;5079036;28;20179;-87
2022/08/15 03:05:44;;;;;;;6.20;3.92;;;17.50;82.60;;;;;;5078230;28;20187;-87
2022/08/15 03:08:11;;;;;;;12.23;4.22;;;17.40;82.80;;;;;;5079690;28;20281;-87
2022/08/15 03:10:38;;;;;;;11.73;4.25;;;17.40;83.10;;;;;;5078246;28;20258;-88
2022/08/15 03:13:11;;;;;;;6.55;3.85;;;17.40;83.30;;;;;;5077368;28;20175;-87
2022/08/15 03:15:41;;;;;;;6.93;3.90;;;17.30;83.40;;;;;;5077804;28;20278;-87
2022/08/15 03:18:07;;;;;;;11.82;4.28;;;17.20;83.70;;;;;;5076746;28;20179;-87
2022/08/15 03:20:32;;;;;;;9.50;4.32;;;17.00;84.30;;;;;;5076479;28;20198;-87
2022/08/15 03:22:59;;;;;;;14.95;4.20;;;16.90;84.70;;;;;;5076397;28;20564;-87
2022/08/15 03:25:25;;;;;;;9.57;4.60;;;16.90;85.10;;;;;;5077177;28;20708;-87
2022/08/15 03:27:52;;;;;;;13.00;4.18;;;17.00;85.20;;;;;;5077555;28;20207;-88
2022/08/15 03:30:18;;;;;;;9.48;4.53;;;17.10;85.40;;;;;;5078629;28;20176;-87
2022/08/15 03:32:50;;;;;;;4.88;3.60;;;17.20;85.20;;;;;;5078691;28;20175;-88
2022/08/15 03:35:18;;;;;;;9.80;4.63;;;17.20;85.10;;;;;;5077048;28;20293;-87
2022/08/15 03:37:43;;;;;;;6.78;3.90;;;17.20;85.00;;;;;;5076690;28;20187;-87
2022/08/15 03:40:10;;;;;;;17.33;5.20;;;17.10;85.30;;;;;;5075592;28;20183;-87
2022/08/15 03:42:36;;;;;;;4.55;3.95;;;17.20;85.80;;;;;;5076845;28;20199;-87
2022/08/15 03:45:07;;;;;;;9.57;4.05;;;17.20;85.90;;;;;;5077831;28;20195;-88
2022/08/15 03:47:33;;;;;;;9.27;4.50;;;17.20;86.00;;;;;;5079963;28;20160;-88
2022/08/15 03:49:59;;;;;;;9.27;4.55;;;17.20;85.90;;;;;;5080384;28;20198;-88
2022/08/15 03:52:25;;;;;;;8.32;4.78;;;17.30;85.80;;;;;;5078828;28;20179;-87
2022/08/15 03:54:51;;;;;;;6.55;4.32;;;17.30;85.70;;;;;;5078454;28;20535;-87
2022/08/15 03:57:17;;;;;;;10.32;4.25;;;17.20;85.70;;;;;;5076298;28;20205;-88
2022/08/15 03:59:43;;;;;;;6.97;4.00;;;17.20;86.00;;;;;;5078096;28;20562;-88
2022/08/15 04:02:10;;;;;;;12.18;4.15;;;17.30;86.20;;;;;;5075313;28;20195;-87
2022/08/15 04:04:36;;;;;;;6.70;4.50;;;17.20;86.20;;;;;;5075804;28;20232;-88
2022/08/15 04:07:04;;;;;;;15.73;4.90;;;17.30;86.50;;;;;;5076355;28;20669;-87
2022/08/15 04:09:30;;;;;;;6.00;4.10;;;17.30;86.60;;;;;;5077310;28;20175;-88
2022/08/15 04:11:57;;;;;;;11.57;4.07;;;17.30;86.70;;;;;;5076329;28;20180;-88
2022/08/15 04:14:23;;;;;;;6.90;4.00;;;17.30;86.90;;;;;;5077273;28;20175;-87
2022/08/15 04:16:48;;;;;;;9.13;4.53;;;17.40;86.90;;;;;;5077244;28;20249;-88
2022/08/15 04:19:15;;;;;;;8.18;4.38;;;17.40;86.90;;;;;;5078299;28;20270;-88
2022/08/15 04:21:42;;;;;;;10.85;4.68;;;17.40;86.90;;;;;;5076884;28;20203;-88
2022/08/15 04:24:08;;;;;;;8.52;4.45;;;17.40;86.80;;;;;;5077544;28;20175;-88
2022/08/15 04:26:34;;;;;;;7.60;4.07;;;17.40;86.90;;;;;;5076749;28;20250;-88
2022/08/15 04:29:01;;;;;;;8.20;4.50;;;17.40;86.90;;;;;;5075615;28;20175;-88
2022/08/15 04:31:27;;;;;;;8.10;4.40;;;17.40;87.00;;;;;;5075332;28;20176;-87
2022/08/15 04:33:52;;;;;;;15.52;4.30;;;17.40;87.10;;;;;;5074816;28;20202;-87
2022/08/15 04:36:20;;;;;;;15.43;4.57;;;17.50;87.10;;;;;;5074923;28;20202;-87
2022/08/15 04:38:47;;;;;;;12.50;5.88;;;17.60;87.00;;;;;;5074650;28;20179;-87
2022/08/15 04:41:15;;;;;;;6.53;4.25;;;17.60;87.00;;;;;;5075709;28;20195;-87
2022/08/15 04:43:42;;;;;;;7.85;4.50;;;17.70;87.00;;;;;;5074617;28;20167;-87
2022/08/15 04:46:09;;;;;;;10.57;4.85;;;17.70;86.90;;;;;;5074523;28;20197;-87
2022/08/15 04:48:34;;;;;;;10.18;4.13;;;17.70;87.00;;;;;;5075030;28;20167;-87
2022/08/15 04:51:02;;;;;;;9.35;4.43;;;17.80;86.90;;;;;;5075705;28;20197;-87
2022/08/15 04:53:33;;;;;;;5.40;4.28;;;17.80;86.90;;;;;;5074933;28;20171;-87
2022/08/15 04:56:00;;;;;;;10.95;4.90;;;17.90;86.80;;;;;;5075621;28;20240;-87
2022/08/15 04:58:26;;;;;;;7.97;4.05;;;18.00;86.70;;;;;;5075884;28;20259;-87
2022/08/15 05:00:55;;;;;;;7.53;4.50;;;18.00;86.70;;;;;;5076156;28;20203;-87
2022/08/15 05:03:21;;;;;;;10.90;4.40;;;18.00;86.60;;;;;;5076771;28;20625;-87
2022/08/15 05:05:52;;;;;;;6.65;4.68;;;18.10;86.50;;;;;;5075961;28;20249;-87
2022/08/15 05:08:19;;;;;;;5.78;3.92;;;18.00;86.30;;;;;;5077285;28;20167;-87
2022/08/15 05:10:51;;;;;;;11.02;4.22;;;18.10;86.40;;;;;;5076933;28;20182;-87
2022/08/15 05:13:19;;;;;;;6.47;4.32;;;18.20;86.40;;;;;;5075918;28;20224;-88
2022/08/15 05:15:46;;;;;;;11.90;4.80;;;18.30;86.50;;;;;;5075884;28;20573;-88
2022/08/15 05:18:14;;;;;;;6.72;4.38;;;18.40;86.50;;;;;;5077753;28;20175;-87
2022/08/15 05:20:41;;;;;;;11.55;4.45;;;18.50;86.30;;;;;;5076504;28;20180;-88
2022/08/15 05:23:10;;;;;;;12.55;4.43;;;18.60;86.10;;;;;;5076154;28;20223;-87
2022/08/15 05:25:39;;;;;;;10.02;4.40;;;18.70;85.90;;;;;;5076431;28;20661;-87
2022/08/15 05:28:10;;;;;;;11.95;4.68;;;18.80;85.60;;;;;;5076120;28;20174;-87
2022/08/15 05:30:36;;;;;;;8.30;4.47;;;18.90;85.20;;;;;;5075127;28;20296;-87
2022/08/15 05:33:10;;;;;;;10.27;4.85;;;19.00;84.90;;;;;;5074551;28;20657;-86
2022/08/15 05:35:41;;;;;;;9.63;4.28;;;19.10;84.60;;;;;;5075578;28;20193;-87
2022/08/15 05:38:14;;;;;;;7.70;4.45;;;19.20;83.80;;;;;;5074342;28;20167;-88
2022/08/15 05:41:02;;;;;;;7.80;4.30;;;19.20;83.70;;;;;;5075815;28;20534;-87
2022/08/15 05:44:01;;;;;;;9.32;4.47;;;19.40;83.30;;;;;;5075732;28;20164;-87
2022/08/15 05:46:26;;;;;;;8.30;3.60;;;19.50;83.10;;;;;;5073986;28;20223;-87
2022/08/15 05:49:23;;;;;;;9.07;4.88;;;19.50;83.00;;;;;;5073909;28;20178;-87
2022/08/15 05:52:04;;;;;;;9.20;4.82;;;19.60;82.70;;;;;;5073963;28;20184;-87
2022/08/15 05:54:53;;;;;;;5.82;4.35;;;19.70;82.50;;;;;;5074696;28;20629;-87
2022/08/15 05:57:39;;;;;;;11.45;4.47;;;19.70;82.50;;;;;;5076658;28;20219;-87
2022/08/15 06:00:09;;;;;;;15.93;5.07;;;19.80;82.40;;;;;;5043650;28;20191;-87
2022/08/15 06:02:40;;;;;;;13.82;4.85;;;19.90;82.00;;;;;;5076171;28;20187;-87
2022/08/15 06:05:13;;;;;;;11.60;4.50;;;20.00;81.80;;;;;;5074893;28;20191;-85
2022/08/15 06:07:46;;;;;;;6.63;4.32;;;20.10;81.60;;;;;;5075275;28;20163;-87
2022/08/15 06:10:25;;;;;;;11.88;4.88;;;20.20;81.30;;;;;;5076410;28;20152;-87
2022/08/15 06:12:54;;;;;;;10.63;5.40;;;20.30;80.70;;;;;;5074137;28;20648;-88
2022/08/15 06:15:26;;;;;;;7.90;4.72;;;20.30;80.60;;;;;;5074053;28;20200;-86
2022/08/15 06:17:56;;;;;;;11.20;4.55;;;20.50;80.20;;;;;;5074525;28;20176;-87
2022/08/15 06:20:31;;;;;;;8.27;4.50;;;20.60;80.00;;;;;;5075686;28;20222;-87
2022/08/15 06:23:15;;;;;;;7.18;4.00;;;20.70;79.70;;;;;;5074256;28;20194;-87
2022/08/15 06:25:40;;;;;;;10.52;4.20;;;20.80;79.40;;;;;;5072653;28;20191;-87
2022/08/15 06:28:41;;;;;;;9.30;4.78;;;20.80;78.80;;;;;;5075334;28;20163;-88
2022/08/15 06:31:26;;;;;;;8.70;5.00;;;20.90;78.90;;;;;;5022034;28;20244;-87
2022/08/15 06:34:02;;;;;;;7.32;4.63;;;21.00;78.70;;;;;;5075299;28;20171;-87
2022/08/15 06:36:50;;;;;;;7.55;4.65;;;21.20;78.70;;;;;;5075034;28;20645;-87
2022/08/15 06:39:31;;;;;;;8.18;4.40;;;21.20;78.30;;;;;;5074439;28;20178;-88
2022/08/15 06:42:06;;;;;;;10.63;4.88;;;21.40;78.00;;;;;;5074433;28;20213;-87
2022/08/15 06:44:33;;;;;;;9.20;5.45;;;21.50;77.90;;;;;;5075056;28;20634;-87
2022/08/15 06:47:04;;;;;;;7.97;5.32;;;21.60;77.70;;;;;;5074156;28;20540;-87
2022/08/15 06:49:37;;;;;;;10.50;5.28;;;21.70;77.40;;;;;;5074471;28;20568;-88
2022/08/15 06:52:05;;;;;;;11.63;5.28;;;21.90;76.90;;;;;;5074798;28;20175;-87
2022/08/15 06:54:32;;;;;;;10.85;4.75;;;22.00;76.30;;;;;;5074820;28;20199;-87
2022/08/15 06:57:09;;;;;;;13.23;4.78;;;22.20;75.60;;;;;;5073501;28;20199;-87
2022/08/15 06:59:44;;;;;;;9.77;4.68;;;22.30;74.80;;;;;;5076507;28;20281;-87
2022/08/15 07:02:10;;;;;;;12.98;5.70;;;22.40;74.00;;;;;;5079406;28;20195;-89
2022/08/15 07:05:07;;;;;;;6.80;4.78;;;22.60;73.80;;;;;;5080289;28;20200;-88
2022/08/15 07:07:33;;;;;;;7.63;4.68;;;22.70;73.00;;;;;;5079740;28;20529;-89
2022/08/15 07:10:20;;;;;;;12.43;5.28;;;22.90;72.60;;;;;;5079701;28;20187;-85
2022/08/15 07:12:56;;;;;;;15.18;5.47;;;23.00;72.40;;;;;;5071699;28;20171;-84
2022/08/15 07:15:47;;;;;;;10.88;5.63;;;23.10;72.00;;;;;;5071536;28;20195;-84
2022/08/15 07:18:24;;;;;;;14.27;5.30;;;23.20;71.80;;;;;;5073256;28;20538;-82
2022/08/15 07:20:51;;;;;;;14.75;5.13;;;23.30;71.40;;;;;;5072947;28;20191;-82
2022/08/15 07:23:20;;;;;;;10.05;5.30;;;23.50;71.90;;;;;;5071797;28;20706;-82
2022/08/15 07:25:48;;;;;;;18.23;4.93;;;23.60;70.90;;;;;;5072970;28;20672;-82
2022/08/15 07:28:16;;;;;;;8.82;4.57;;;23.70;69.70;;;;;;5071645;28;20267;-82
2022/08/15 07:30:46;;;;;;;14.05;5.30;;;23.80;70.10;;;;;;5072949;28;20175;-82
2022/08/15 07:33:35;;;;;;;14.85;5.35;;;24.00;69.10;;;;;;5071579;28;20552;-82
2022/08/15 07:36:24;;;;;;;10.45;5.05;;;24.10;69.00;;;;;;5072855;28;20230;-82
2022/08/15 07:38:51;;;;;;;9.52;5.43;;;24.20;68.60;;;;;;5076443;28;20175;-82
2022/08/15 07:41:23;;;;;;;15.88;5.32;;;24.30;68.90;;;;;;5076675;28;20673;-82
2022/08/15 07:44:22;;;;;;;9.60;4.97;;;24.30;68.80;;;;;;5075055;28;20677;-83
2022/08/15 07:47:12;;;;;;;13.43;5.47;;;24.50;68.10;;;;;;5073270;28;20198;-84
2022/08/15 07:49:37;;;;;;;10.30;5.35;;;24.60;67.40;;;;;;5071015;28;20202;-84
2022/08/15 07:52:21;;;;;;;10.38;4.72;;;24.60;67.10;;;;;;5076069;28;20172;-84
2022/08/15 07:54:50;;;;;;;13.38;5.35;;;24.60;66.90;;;;;;5076193;28;20163;-83
2022/08/15 07:57:22;;;;;;;10.90;5.60;;;24.70;67.10;;;;;;5075924;28;20171;-83
2022/08/15 08:00:19;;;;;;;13.90;5.60;;;24.90;66.70;;;;;;5074586;28;20191;-83
2022/08/15 08:03:13;;;;;;;15.05;5.63;;;25.00;66.60;;;;;;5074626;28;20203;-84
2022/08/15 08:05:45;;;;;;;16.67;6.10;;;25.20;66.50;;;;;;5074999;28;20194;-84
2022/08/15 08:08:11;;;;;;;10.82;5.50;;;25.30;65.20;;;;;;5074422;28;20178;-84
2022/08/15 08:10:48;;;;;;;17.63;5.60;;;25.40;64.90;;;;;;5074443;28;20621;-83
2022/08/15 08:13:34;;;;;;;9.30;5.75;;;25.60;64.30;;;;;;5076037;28;20191;-83
2022/08/15 08:16:03;;;;;;;7.85;5.95;;;25.80;64.40;;;;;;5074251;28;20199;-82
2022/08/15 08:18:50;;;;;;;21.55;6.22;;;25.80;63.70;;;;;;5075409;28;20182;-82
2022/08/15 08:21:32;;;;;;;11.40;5.65;;;26.00;63.50;;;;;;5075649;28;20195;-82
2022/08/15 08:24:13;;;;;;;12.43;5.32;;;26.00;62.80;;;;;;5075965;28;20227;-82
2022/08/15 08:27:05;;;;;;;15.73;6.40;;;26.20;62.60;;;;;;5074315;28;20669;-82
2022/08/15 08:29:44;;;;;;;8.93;5.68;;;26.20;60.90;;;;;;5074346;28;20171;-82
2022/08/15 08:32:14;;;;;;;13.98;6.22;;;26.40;60.10;;;;;;5075408;28;20175;-82
2022/08/15 08:34:46;;;;;;;11.48;6.07;;;26.50;59.20;;;;;;5074652;28;20229;-81
2022/08/15 08:37:37;;;;;;;17.67;5.57;;;26.70;58.50;;;;;;5075779;28;20176;-82
2022/08/15 08:42:58;;;;;;;12.27;6.15;;;27.00;58.60;;;;;;5075169;28;20294;-82
2022/08/15 08:45:42;;;;;;;7.90;5.85;;;27.10;57.30;;;;;;5075139;28;20213;-82
2022/08/15 08:48:28;;;;;;;8.30;5.90;;;27.10;56.30;;;;;;5074833;28;20143;-82
2022/08/15 08:51:22;;;;;;;16.08;5.35;;;27.20;56.20;;;;;;5075083;28;20156;-82
2022/08/15 08:54:02;;;;;;;10.13;6.13;;;27.40;55.60;;;;;;5075051;28;20144;-82
2022/08/15 08:56:31;;;;;;;17.13;6.38;;;27.50;56.10;;;;;;5074775;28;20194;-82
2022/08/15 08:59:28;;;;;;;10.20;6.47;;;27.60;56.30;;;;;;5073447;28;20187;-82
2022/08/15 09:02:05;;;;;;;13.00;6.45;;;27.80;56.30;;;;;;5073493;28;20286;-82
2022/08/15 09:04:42;;;;;;;14.27;6.40;;;27.90;55.30;;;;;;5074872;28;20512;-82
2022/08/15 09:07:11;;;;;;;13.18;6.85;;;28.10;54.50;;;;;;5074892;28;20175;-82
2022/08/15 09:09:41;;;;;;;14.43;6.15;;;28.20;53.60;;;;;;5074516;28;20246;-82
2022/08/15 09:15:01;;;;;;;11.68;6.57;;;28.30;53.50;;;;;;5074724;28;20651;-84
2022/08/15 09:17:30;;;;;;;23.75;7.03;;;28.30;52.60;;;;;;5074510;28;20159;-82
2022/08/15 09:20:12;;;;;;;9.27;6.60;;;28.50;53.40;;;;;;5074407;28;20661;-84
2022/08/15 09:22:38;;;;;;;17.02;7.18;;;28.70;52.00;;;;;;5074287;28;20196;-84
2022/08/15 09:25:06;;;;;;;8.13;6.38;;;28.70;52.30;;;;;;5073311;28;20195;-87
2022/08/15 09:27:50;;;;;;;11.05;6.63;;;28.90;52.70;;;;;;5074609;28;20167;-80
2022/08/15 09:30:17;;;;;;;8.07;6.32;;;29.00;52.40;;;;;;5073454;28;20167;-80
2022/08/15 09:33:12;;;;;;;8.93;6.50;;;29.10;52.60;;;;;;5074708;28;20163;-80
2022/08/15 09:36:15;;;;;;;9.48;6.15;;;29.10;52.20;;;;;;5075091;28;20191;-81
2022/08/15 09:38:58;;;;;;;10.45;6.10;;;29.30;50.80;;;;;;5052948;28;20191;-82
2022/08/15 09:41:40;;;;;;;20.92;6.07;;;29.40;51.80;;;;;;5074245;28;20182;-80
2022/08/15 09:44:09;;;;;;;8.20;6.10;;;29.50;51.80;;;;;;5074533;28;20247;-81
2022/08/15 09:47:13;;;;;;;11.15;6.03;;;29.50;52.00;;;;;;5072844;28;20188;-81
2022/08/15 09:50:07;;;;;;;7.38;5.93;;;29.60;51.20;;;;;;5072878;28;20270;-81
2022/08/15 09:52:58;;;;;;;10.52;5.97;;;29.80;49.80;;;;;;5059147;28;20175;-81
2022/08/15 09:55:47;;;;;;;9.30;5.95;;;30.00;51.00;;;;;;5073059;28;20198;-81
2022/08/15 09:58:20;;;;;;;13.60;6.03;;;30.00;49.80;;;;;;5074622;28;20170;-81
2022/08/15 10:01:03;;;;;;;10.68;5.32;;;30.20;50.20;;;;;;5072179;28;20282;-85
2022/08/15 10:03:44;;;;;;;9.15;6.15;;;30.30;49.20;;;;;;5072669;28;20664;-81
2022/08/15 10:06:22;;;;;;;9.90;6.28;;;30.40;48.40;;;;;;5073717;28;20268;-81
2022/08/15 10:08:53;;;;;;;14.02;6.60;;;30.30;49.00;;;;;;5072812;28;20168;-81
2022/08/15 10:11:30;;;;;;;9.90;5.75;;;30.40;48.30;;;;;;5075037;28;20171;-83
2022/08/15 10:14:04;;;;;;;8.65;5.43;;;30.50;46.80;;;;;;5072778;28;20667;-82
2022/08/15 10:16:41;;;;;;;7.28;5.03;;;30.60;46.90;;;;;;5073382;28;20194;-81
2022/08/15 10:19:37;;;;;;;7.50;5.60;;;30.70;45.00;;;;;;5072315;28;20250;-81
2022/08/15 10:22:22;;;;;;;9.50;6.05;;;30.80;46.20;;;;;;5069960;28;20214;-82
2022/08/15 10:25:17;;;;;;;22.58;6.30;;;30.90;46.60;;;;;;5072189;28;20254;-81
2022/08/15 10:28:10;;;;;;;10.57;5.47;;;30.80;46.40;;;;;;5075180;28;20163;-81
2022/08/15 10:30:45;;;;;;;14.32;5.65;;;31.10;45.80;;;;;;5075222;28;20168;-82
2022/08/15 10:33:33;;;;;;;9.48;5.43;;;31.30;44.20;;;;;;5073385;28;20167;-82
2022/08/15 10:36:13;;;;;;;10.30;5.43;;;31.50;43.50;;;;;;5072799;28;20222;-81
2022/08/15 10:39:05;;;;;;;11.45;5.03;;;31.60;43.90;;;;;;5074894;28;20213;-82
2022/08/15 10:41:36;;;;;;;13.70;5.30;;;31.60;43.60;;;;;;5072944;28;20216;-82
2022/08/15 10:44:42;;;;;;;5.90;5.20;;;31.50;44.20;;;;;;5073490;28;20633;-81
2022/08/15 10:47:29;;;;;;;7.03;5.60;;;31.20;45.50;;;;;;5073115;28;20167;-82
2022/08/15 10:50:41;;;;;;;14.35;5.95;;;31.50;44.10;;;;;;5072674;28;20547;-82
2022/08/15 10:53:25;;;;;;;9.13;5.63;;;31.70;44.30;;;;;;5074586;28;20172;-82
2022/08/15 10:55:52;;;;;;;7.00;5.50;;;31.50;43.90;;;;;;5074613;28;20197;-82
2022/08/15 10:58:22;;;;;;;9.50;5.55;;;31.40;42.60;;;;;;5073054;28;20198;-82
2022/08/15 11:00:47;;;;;;;13.25;5.65;;;31.40;43.60;;;;;;5073500;28;20568;-82
2022/08/15 11:03:24;;;;;;;11.27;5.32;;;31.40;42.90;;;;;;5074216;28;20191;-82
2022/08/15 11:05:55;;;;;;;9.55;5.05;;;31.40;42.40;;;;;;5074582;28;20252;-82
2022/08/15 11:08:23;;;;;;;7.03;5.35;;;31.40;42.10;;;;;;5074383;28;20175;-84
2022/08/15 11:10:49;;;;;;;12.13;5.18;;;31.40;43.10;;;;;;5073608;28;20175;-82
2022/08/15 11:13:20;;;;;;;8.95;4.95;;;31.40;42.90;;;;;;5077973;28;20183;-82
2022/08/15 11:15:54;;;;;;;7.50;5.07;;;31.60;41.70;;;;;;5076801;28;20290;-82
2022/08/15 11:18:25;;;;;;;9.88;5.57;;;31.40;44.20;;;;;;5076829;28;20194;-83
2022/08/15 11:20:54;;;;;;;11.32;4.97;;;31.40;43.30;;;;;;5077825;28;20559;-82
2022/08/15 11:23:41;;;;;;;11.57;5.45;;;31.70;43.50;;;;;;5077759;28;20741;-82
2022/08/15 11:26:11;;;;;;;12.07;4.30;;;32.00;40.80;;;;;;5076278;28;20195;-82
2022/08/15 11:28:39;;;;;;;8.23;5.10;;;32.10;39.90;;;;;;5076395;28;20167;-82
2022/08/15 11:31:16;;;;;;;6.72;5.03;;;32.10;41.60;;;;;;5078179;28;20164;-82
2022/08/15 11:33:45;;;;;;;10.35;5.10;;;32.10;41.10;;;;;;5077436;28;20254;-80
2022/08/15 11:36:23;;;;;;;11.82;5.38;;;32.30;40.90;;;;;;5075700;28;20278;-81
2022/08/15 11:39:12;;;;;;;12.77;5.15;;;32.50;39.70;;;;;;5075677;28;20171;-81
2022/08/15 11:41:41;;;;;;;6.32;5.30;;;32.30;40.60;;;;;;5076601;28;20229;-81
2022/08/15 11:44:10;;;;;;;8.70;5.43;;;31.80;40.10;;;;;;5077269;28;20172;-81
2022/08/15 11:46:37;;;;;;;8.70;5.10;;;31.70;41.80;;;;;;5076696;28;20251;-81
2022/08/15 11:49:11;;;;;;;5.85;5.25;;;31.70;41.00;;;;;;5076672;28;20305;-81
2022/08/15 11:51:42;;;;;;;7.35;5.32;;;31.70;40.80;;;;;;5077249;28;20156;-81
2022/08/15 11:54:21;;;;;;;7.07;6.10;;;31.90;42.10;;;;;;5076976;28;20204;-81
2022/08/15 11:57:00;;;;;;;9.73;5.80;;;31.90;41.40;;;;;;5076924;28;20567;-81
2022/08/15 11:59:30;;;;;;;8.27;4.93;;;32.10;40.50;;;;;;5076839;28;20183;-81
2022/08/15 12:02:03;;;;;;;7.18;5.20;;;32.20;39.80;;;;;;5077158;28;20199;-81
2022/08/15 12:04:34;;;;;;;7.60;4.90;;;32.10;39.00;;;;;;5077636;28;20185;-81
2022/08/15 12:07:27;;;;;;;8.75;5.10;;;32.00;40.10;;;;;;5077559;28;20190;-81
2022/08/15 12:09:57;;;;;;;8.20;5.03;;;32.10;41.70;;;;;;5077495;28;20567;-82
2022/08/15 12:12:37;;;;;;;5.50;4.80;;;32.20;40.20;;;;;;5075647;28;20178;-82
2022/08/15 12:15:09;;;;;;;7.63;4.82;;;32.30;41.00;;;;;;5076202;28;20206;-82
2022/08/15 12:17:35;;;;;;;8.77;5.30;;;32.20;42.00;;;;;;5077367;28;20649;-82
2022/08/15 12:20:04;;;;;;;8.75;4.53;;;32.20;39.70;;;;;;5076865;28;20179;-82
2022/08/15 12:22:37;;;;;;;10.15;5.55;;;32.20;39.00;;;;;;5074750;28;20203;-81
2022/08/15 12:25:05;;;;;;;9.13;4.95;;;32.40;38.40;;;;;;5075644;28;20656;-82
2022/08/15 12:27:31;;;;;;;8.40;4.95;;;32.40;39.20;;;;;;5076346;28;20172;-81
2022/08/15 12:29:56;;;;;;;14.27;5.20;;;32.90;40.30;;;;;;5076812;28;20289;-83
2022/08/15 12:32:23;;;;;;;12.52;6.45;;;32.90;40.10;;;;;;5076935;28;20254;-82
2022/08/15 12:34:51;;;;;;;8.93;5.65;;;32.90;39.90;;;;;;5075688;28;20179;-82
2022/08/15 12:37:20;;;;;;;9.80;5.22;;;32.70;40.00;;;;;;5075856;28;20547;-81
2022/08/15 12:39:48;;;;;;;14.23;5.50;;;32.50;39.50;;;;;;5077264;28;20175;-82
2022/08/15 12:42:19;;;;;;;12.63;5.78;;;32.50;41.10;;;;;;5076962;28;20254;-82
2022/08/15 12:44:47;;;;;;;6.75;5.22;;;32.40;39.90;;;;;;5076028;28;20167;-82
2022/08/15 12:47:13;;;;;;;10.60;5.50;;;32.50;39.60;;;;;;5075710;28;20244;-82
2022/08/15 12:49:39;;;;;;;9.65;6.25;;;32.60;38.40;;;;;;5076653;28;20179;-86
2022/08/15 12:52:05;;;;;;;7.57;5.35;;;32.40;38.80;;;;;;5074748;28;20217;-90
2022/08/15 12:54:31;;;;;;;7.85;5.25;;;32.20;39.70;;;;;;5074554;28;20175;-88
2022/08/15 12:56:57;;;;;;;8.45;4.78;;;32.30;40.80;;;;;;5074813;28;20217;-86
2022/08/15 12:59:23;;;;;;;8.20;4.70;;;32.40;39.90;;;;;;5073080;28;20187;-86
2022/08/15 13:01:50;;;;;;;6.93;5.07;;;32.60;39.80;;;;;;5074539;28;20203;-86
2022/08/15 13:04:16;;;;;;;6.25;5.63;;;32.70;39.80;;;;;;5074432;28;20272;-87
2022/08/15 13:06:42;;;;;;;14.10;7.40;;;32.80;38.70;;;;;;5074155;28;20732;-87
2022/08/15 13:09:10;;;;;;;11.52;8.55;;;32.90;38.20;;;;;;5074342;28;20164;-85
2022/08/15 13:11:37;;;;;;;8.18;5.63;;;33.00;38.30;;;;;;5074402;28;20619;-84
2022/08/15 13:14:03;;;;;;;11.52;6.20;;;33.10;38.80;;;;;;5073122;28;20179;-86
2022/08/15 13:16:30;;;;;;;7.47;5.25;;;32.90;38.80;;;;;;5074230;28;20633;-84
2022/08/15 13:18:57;;;;;;;8.98;6.63;;;32.70;39.20;;;;;;5074445;28;20207;-84